Time;durP1;ratioP1;P1;durP2;ratioP2;P2;SDS_P1;SDS_P2;PMS_P1;PMS_P2;Temp;Humidity;BMP_temperature;BMP_pressure;BME280_temperature;BME280_humidity;BME280_pressure;Samples;Min_cycle;Max_cycle;Signal;HPM_P1;HPM_P2
2022/11/26 00:00:36;;;;;;;4.63;2.45;;;;;;;10.08;100.00;101520.47;5042040;28;20040;-68
2022/11/26 00:03:01;;;;;;;6.22;2.65;;;;;;;10.04;100.00;101523.03;5050273;28;20521;-68
2022/11/26 00:05:30;;;;;;;4.82;2.85;;;;;;;10.01;100.00;101531.75;5036686;28;20111;-67
2022/11/26 00:08:16;;;;;;;9.30;3.42;;;;;;;9.99;100.00;101528.59;5037279;28;20041;-68
2022/11/26 00:10:42;;;;;;;9.40;3.08;;;;;;;9.94;100.00;101529.63;5001906;28;20060;-69
2022/11/26 00:13:28;;;;;;;7.68;2.97;;;;;;;9.97;100.00;101536.22;5035094;28;20045;-69
2022/11/26 00:15:55;;;;;;;5.57;2.22;;;;;;;9.93;100.00;101541.47;5019056;28;20041;-69
2022/11/26 00:18:25;;;;;;;11.38;2.80;;;;;;;9.84;100.00;101540.75;5023657;28;20056;-69
2022/11/26 00:20:55;;;;;;;4.43;2.33;;;;;;;9.90;100.00;101544.84;5027530;28;20045;-69
2022/11/26 00:23:25;;;;;;;8.25;3.10;;;;;;;9.87;100.00;101542.03;5020447;28;20030;-69
2022/11/26 00:26:02;;;;;;;3.67;2.20;;;;;;;9.84;100.00;101548.84;5010895;28;20030;-69
2022/11/26 00:28:36;;;;;;;5.13;2.30;;;;;;;9.82;100.00;101559.13;5020540;28;20081;-69
2022/11/26 00:31:12;;;;;;;9.55;2.35;;;;;;;9.77;100.00;101550.47;5023390;28;20120;-69
2022/11/26 00:33:38;;;;;;;11.52;2.72;;;;;;;9.73;100.00;101558.41;5019013;28;20104;-69
2022/11/26 00:36:14;;;;;;;6.55;2.83;;;;;;;9.79;100.00;101564.38;5022251;28;20041;-69
2022/11/26 00:38:40;;;;;;;4.88;2.20;;;;;;;9.75;100.00;101568.84;5014602;28;20530;-69
2022/11/26 00:41:13;;;;;;;5.18;2.60;;;;;;;9.78;100.00;101574.34;5023570;28;20060;-69
2022/11/26 00:43:39;;;;;;;7.30;3.22;;;;;;;9.76;100.00;101573.09;5001827;28;20121;-69
2022/11/26 00:46:04;;;;;;;8.32;2.45;;;;;;;9.73;100.00;101579.13;5002901;28;20061;-69
2022/11/26 00:48:30;;;;;;;7.63;2.50;;;;;;;9.72;100.00;101585.59;5014586;28;20077;-69
2022/11/26 00:50:55;;;;;;;9.77;2.53;;;;;;;9.63;100.00;101582.19;5027003;28;20042;-69
2022/11/26 00:53:24;;;;;;;7.53;3.10;;;;;;;9.67;100.00;101586.59;5030200;28;20045;-69
2022/11/26 00:55:50;;;;;;;5.85;2.75;;;;;;;9.67;100.00;101588.50;5023906;28;20091;-69
2022/11/26 00:58:25;;;;;;;5.30;2.60;;;;;;;9.68;100.00;101590.84;5025921;28;20026;-69
2022/11/26 01:00:52;;;;;;;7.57;3.35;;;;;;;9.70;100.00;101599.38;5020274;28;20029;-69
2022/11/26 01:03:17;;;;;;;7.95;3.05;;;;;;;9.58;100.00;101599.28;5032485;28;20056;-69
2022/11/26 01:05:43;;;;;;;7.93;2.78;;;;;;;9.54;100.00;101602.97;5031738;28;20021;-69
2022/11/26 01:08:20;;;;;;;8.00;2.80;;;;;;;9.60;100.00;101607.06;5025496;28;20270;-69
2022/11/26 01:10:45;;;;;;;8.77;2.50;;;;;;;9.55;100.00;101613.38;5025909;28;20065;-69
2022/11/26 01:13:11;;;;;;;9.23;2.35;;;;;;;9.51;100.00;101614.34;5022606;28;20060;-69
2022/11/26 01:15:36;;;;;;;4.80;2.58;;;;;;;9.52;100.00;101607.88;5023946;28;20167;-69
2022/11/26 01:18:11;;;;;;;7.43;3.00;;;;;;;9.48;100.00;101618.50;5031626;28;20033;-69
2022/11/26 01:20:37;;;;;;;6.13;2.38;;;;;;;9.34;100.00;101623.28;5019282;28;20033;-69
2022/11/26 01:23:02;;;;;;;6.93;2.83;;;;;;;9.34;100.00;101630.56;5030484;28;20036;-69
2022/11/26 01:25:28;;;;;;;6.72;2.10;;;;;;;9.35;100.00;101627.53;5029902;28;20032;-69
2022/11/26 01:27:53;;;;;;;7.20;3.15;;;;;;;9.34;100.00;101627.88;5026162;28;20075;-69
2022/11/26 01:30:22;;;;;;;4.55;2.25;;;;;;;9.36;100.00;101633.72;5026976;28;20104;-69
2022/11/26 01:32:48;;;;;;;10.07;2.65;;;;;;;9.27;100.00;101628.34;5027264;28;20069;-69
2022/11/26 01:35:18;;;;;;;3.20;2.30;;;;;;;9.26;100.00;101640.22;5028233;28;20482;-69
2022/11/26 01:37:45;;;;;;;6.25;2.65;;;;;;;9.30;100.00;101640.38;5023787;28;20056;-69
2022/11/26 01:40:48;;;;;;;4.75;2.67;;;;;;;9.27;100.00;101643.72;5028499;28;20033;-69
2022/11/26 01:43:26;;;;;;;7.20;2.25;;;;;;;9.30;100.00;101645.75;5014055;28;20041;-69
2022/11/26 01:45:53;;;;;;;7.78;2.55;;;;;;;9.19;100.00;101649.91;5024780;28;20055;-69
2022/11/26 01:48:26;;;;;;;4.93;3.08;;;;;;;9.13;100.00;101648.50;5025851;28;20493;-69
2022/11/26 01:51:04;;;;;;;6.50;3.58;;;;;;;9.13;100.00;101660.03;5026467;28;20037;-69
2022/11/26 01:53:39;;;;;;;13.43;2.97;;;;;;;9.13;100.00;101657.34;5021937;28;20112;-69
2022/11/26 01:56:34;;;;;;;6.18;2.85;;;;;;;9.05;100.00;101658.16;5032733;28;20082;-69
2022/11/26 01:59:13;;;;;;;11.45;2.95;;;;;;;9.09;100.00;101662.56;5021365;28;20585;-69
2022/11/26 02:01:38;;;;;;;4.78;3.15;;;;;;;9.07;100.00;101661.31;5026345;28;20034;-69
2022/11/26 02:04:25;;;;;;;6.25;2.78;;;;;;;9.08;100.00;101660.97;5016895;28;20079;-69
2022/11/26 02:06:53;;;;;;;5.50;3.22;;;;;;;9.07;100.00;101655.94;5028612;28;20037;-69
2022/11/26 02:09:19;;;;;;;8.13;2.38;;;;;;;9.04;100.00;101660.03;5021486;28;20367;-69
2022/11/26 02:11:45;;;;;;;2.72;1.88;;;;;;;9.01;100.00;101660.69;5030903;28;20418;-69
2022/11/26 02:14:18;;;;;;;5.30;2.72;;;;;;;8.99;100.00;101670.97;5030140;28;20063;-69
2022/11/26 02:17:02;;;;;;;7.32;2.75;;;;;;;8.91;100.00;101674.44;5025785;28;20440;-69
2022/11/26 02:19:55;;;;;;;9.98;2.67;;;;;;;8.86;100.00;101676.50;5022774;28;20038;-69
2022/11/26 02:22:49;;;;;;;3.78;2.28;;;;;;;8.75;100.00;101684.09;5029265;28;20108;-69
2022/11/26 02:25:35;;;;;;;3.10;2.33;;;;;;;8.75;100.00;101678.72;5021854;28;20029;-69
2022/11/26 02:28:22;;;;;;;3.40;2.22;;;;;;;8.69;100.00;101687.25;5025140;28;20493;-68
2022/11/26 02:30:56;;;;;;;3.47;2.35;;;;;;;8.77;100.00;101686.44;5028124;28;20064;-69
2022/11/26 02:33:34;;;;;;;4.70;2.17;;;;;;;8.71;100.00;101688.50;5021227;28;20037;-69
2022/11/26 02:36:24;;;;;;;4.50;2.80;;;;;;;8.72;100.00;101694.66;5027510;28;20029;-68
2022/11/26 02:38:49;;;;;;;6.55;2.97;;;;;;;8.72;100.00;101703.53;5027452;28;20167;-69
2022/11/26 02:41:15;;;;;;;3.58;2.92;;;;;;;8.68;100.00;101705.25;5029779;28;20123;-68
2022/11/26 02:43:41;;;;;;;5.47;2.42;;;;;;;8.68;100.00;101705.25;5027870;28;20029;-68
2022/11/26 02:46:14;;;;;;;6.15;2.63;;;;;;;8.67;100.00;101709.03;5024515;28;20044;-69
2022/11/26 02:48:43;;;;;;;2.55;1.90;;;;;;;8.62;100.00;101714.56;5023228;28;20034;-69
2022/11/26 02:51:18;;;;;;;3.75;2.40;;;;;;;8.46;100.00;101718.81;5026425;28;20246;-68
2022/11/26 02:53:45;;;;;;;2.72;1.88;;;;;;;8.46;100.00;101718.03;5026598;28;20752;-68
2022/11/26 02:56:22;;;;;;;5.90;3.10;;;;;;;8.40;100.00;101722.75;5025337;28;20042;-69
2022/11/26 02:58:49;;;;;;;6.60;2.70;;;;;;;8.39;100.00;101720.38;5020914;28;20034;-68
2022/11/26 03:01:27;;;;;;;5.10;2.38;;;;;;;8.35;100.00;101727.47;5027475;28;20459;-69
2022/11/26 03:03:57;;;;;;;3.38;2.28;;;;;;;8.35;100.00;101727.47;5023025;28;20037;-69
2022/11/26 03:06:26;;;;;;;7.47;3.65;;;;;;;8.30;100.00;101730.31;5024127;28;20288;-69
2022/11/26 03:08:54;;;;;;;5.55;2.60;;;;;;;8.35;100.00;101732.84;5021956;28;20033;-68
2022/11/26 03:11:20;;;;;;;4.68;2.70;;;;;;;8.40;100.00;101732.72;5021725;28;20120;-69
2022/11/26 03:13:47;;;;;;;5.05;2.63;;;;;;;8.43;100.00;101732.06;5022997;28;20207;-69
2022/11/26 03:16:13;;;;;;;3.95;2.28;;;;;;;8.45;100.00;101737.91;5019388;28;20112;-69
2022/11/26 03:18:38;;;;;;;3.40;2.35;;;;;;;8.33;100.00;101746.56;5025275;28;20159;-69
2022/11/26 03:21:04;;;;;;;4.75;2.40;;;;;;;8.37;100.00;101744.84;5018810;28;20439;-69
2022/11/26 03:23:29;;;;;;;6.57;2.95;;;;;;;8.36;100.00;101756.69;5023798;28;20482;-69
2022/11/26 03:25:55;;;;;;;3.00;2.33;;;;;;;8.41;100.00;101753.88;5024710;28;20122;-69
2022/11/26 03:28:20;;;;;;;6.57;2.53;;;;;;;8.40;100.00;101762.22;5020044;28;20033;-68
2022/11/26 03:30:49;;;;;;;3.05;1.95;;;;;;;8.44;100.00;101766.63;5029736;28;20080;-69
2022/11/26 03:33:14;;;;;;;2.55;2.00;;;;;;;8.46;100.00;101769.81;5027409;28;20775;-69
2022/11/26 03:35:40;;;;;;;2.92;1.98;;;;;;;8.45;100.00;101770.13;5016882;28;20030;-68
2022/11/26 03:38:05;;;;;;;4.30;2.50;;;;;;;8.36;100.00;101767.44;5027334;28;20042;-69
2022/11/26 03:40:30;;;;;;;3.25;2.17;;;;;;;8.31;100.00;101759.50;5027762;28;20095;-68
2022/11/26 03:42:56;;;;;;;4.03;2.20;;;;;;;8.27;100.00;101761.22;5022618;28;20045;-69
2022/11/26 03:45:21;;;;;;;4.43;2.17;;;;;;;8.20;100.00;101760.88;5017370;28;20034;-69
2022/11/26 03:47:47;;;;;;;3.13;2.53;;;;;;;8.23;100.00;101760.25;5015910;28;20030;-69
2022/11/26 03:50:15;;;;;;;2.22;1.80;;;;;;;8.21;100.00;101773.19;5016968;28;20034;-69
2022/11/26 03:52:40;;;;;;;3.83;1.80;;;;;;;8.09;100.00;101773.00;5021696;28;20391;-69
2022/11/26 03:55:06;;;;;;;3.80;2.25;;;;;;;8.10;100.00;101777.25;5022895;28;20033;-69
2022/11/26 03:57:32;;;;;;;4.32;2.15;;;;;;;8.08;100.00;101782.13;5018255;28;20076;-68
2022/11/26 03:59:57;;;;;;;3.72;2.35;;;;;;;8.09;100.00;101773.78;5024539;28;20072;-68
2022/11/26 04:02:23;;;;;;;2.75;1.95;;;;;;;8.08;100.00;101776.78;5025745;28;20042;-68
2022/11/26 04:04:48;;;;;;;4.63;2.30;;;;;;;8.08;100.00;101779.44;5019132;28;20033;-68
2022/11/26 04:07:14;;;;;;;3.72;1.92;;;;;;;8.06;100.00;101781.66;5027866;28;20544;-69
2022/11/26 04:09:39;;;;;;;4.00;2.58;;;;;;;8.06;100.00;101789.69;5022242;28;20037;-69
2022/11/26 04:12:05;;;;;;;2.63;1.95;;;;;;;8.10;100.00;101779.94;5025100;28;20033;-69
2022/11/26 04:14:30;;;;;;;3.17;2.05;;;;;;;8.14;100.00;101792.44;5020344;28;20026;-68
2022/11/26 04:16:55;;;;;;;3.50;2.05;;;;;;;8.19;100.00;101784.22;5020347;28;20124;-68
2022/11/26 04:19:21;;;;;;;4.65;2.60;;;;;;;8.19;100.00;101786.91;5024159;28;20121;-68
2022/11/26 04:21:46;;;;;;;3.40;2.35;;;;;;;8.22;100.00;101793.56;5024831;28;20073;-69
2022/11/26 04:24:12;;;;;;;3.42;2.28;;;;;;;8.27;100.00;101798.00;5024509;28;20057;-69
2022/11/26 04:26:37;;;;;;;4.50;2.47;;;;;;;8.29;100.00;101804.66;5016748;28;20053;-69
2022/11/26 04:29:03;;;;;;;4.43;2.75;;;;;;;8.32;100.00;101804.03;5022919;28;20034;-69
2022/11/26 04:31:28;;;;;;;5.65;2.65;;;;;;;8.35;100.00;101800.72;5020390;28;20199;-69
2022/11/26 04:33:54;;;;;;;5.15;3.03;;;;;;;8.39;100.00;101796.31;5030486;28;20037;-69
2022/11/26 04:36:19;;;;;;;4.00;2.35;;;;;;;8.38;100.00;101800.09;5027033;28;20110;-68
2022/11/26 04:38:45;;;;;;;5.45;3.03;;;;;;;8.46;100.00;101804.69;5024761;28;20432;-69
2022/11/26 04:41:10;;;;;;;4.05;2.40;;;;;;;8.49;100.00;101795.25;5014923;28;20065;-69
2022/11/26 04:43:36;;;;;;;5.68;2.53;;;;;;;8.46;100.00;101809.31;5027258;28;20033;-69
2022/11/26 04:46:01;;;;;;;5.10;2.95;;;;;;;8.47;100.00;101803.63;5026904;28;20030;-69
2022/11/26 04:48:27;;;;;;;4.85;2.60;;;;;;;8.44;100.00;101806.91;5024064;28;20035;-69
2022/11/26 04:50:52;;;;;;;6.95;3.45;;;;;;;8.40;100.00;101822.03;5023827;28;20025;-69
2022/11/26 04:53:20;;;;;;;4.63;3.20;;;;;;;8.50;100.00;101826.34;5019950;28;20133;-68
2022/11/26 04:55:51;;;;;;;7.15;4.13;;;;;;;8.49;100.00;101825.56;5027296;28;20083;-69
2022/11/26 04:58:18;;;;;;;6.60;3.28;;;;;;;8.65;100.00;101824.00;5027196;28;20030;-69
2022/11/26 05:00:44;;;;;;;5.75;3.65;;;;;;;8.49;100.00;101836.31;5029160;28;20035;-68
2022/11/26 05:03:09;;;;;;;6.90;3.38;;;;;;;8.46;100.00;101836.13;5025820;28;20124;-69
2022/11/26 05:05:35;;;;;;;5.85;3.45;;;;;;;8.45;100.00;101839.91;5028351;28;20028;-69
2022/11/26 05:08:01;;;;;;;7.90;3.17;;;;;;;8.45;100.00;101842.59;5027042;28;20064;-69
2022/11/26 05:10:26;;;;;;;4.32;3.00;;;;;;;8.43;100.00;101842.91;5030104;28;20056;-69
2022/11/26 05:12:51;;;;;;;8.82;4.70;;;;;;;8.39;100.00;101843.84;5029546;28;21413;-68
2022/11/26 05:15:17;;;;;;;10.05;4.05;;;;;;;8.33;100.00;101845.06;5024881;28;20074;-69
2022/11/26 05:17:42;;;;;;;9.23;3.35;;;;;;;8.49;100.00;101848.94;5022716;28;20465;-69
2022/11/26 05:20:08;;;;;;;7.43;3.35;;;;;;;8.48;100.00;101845.44;5023582;28;20036;-69
2022/11/26 05:22:34;;;;;;;6.47;3.97;;;;;;;8.44;100.00;101852.53;5023530;28;20030;-68
2022/11/26 05:24:59;;;;;;;7.55;3.35;;;;;;;8.32;100.00;101846.19;5015477;28;20344;-69
2022/11/26 05:27:25;;;;;;;8.50;3.55;;;;;;;8.37;100.00;101852.19;5028899;28;20475;-69
2022/11/26 05:29:50;;;;;;;4.32;3.25;;;;;;;8.39;100.00;101860.72;5032098;28;20479;-68
2022/11/26 05:32:15;;;;;;;6.68;3.47;;;;;;;8.32;100.00;101864.97;5028616;28;20025;-69
2022/11/26 05:34:41;;;;;;;6.00;3.58;;;;;;;8.33;100.00;101870.03;5020856;28;20430;-68
2022/11/26 05:37:07;;;;;;;5.90;3.42;;;;;;;8.29;100.00;101876.31;5028129;28;20049;-69
2022/11/26 05:39:32;;;;;;;7.82;3.08;;;;;;;8.36;100.00;101874.78;5023242;28;20037;-68
2022/11/26 05:41:57;;;;;;;6.05;2.70;;;;;;;8.40;100.00;101883.00;5029788;28;20033;-68
2022/11/26 05:44:23;;;;;;;5.00;3.15;;;;;;;8.48;100.00;101880.34;5028034;28;20033;-69
2022/11/26 05:46:48;;;;;;;5.32;3.20;;;;;;;8.44;100.00;101876.69;5028066;28;20040;-68
2022/11/26 05:49:14;;;;;;;8.43;3.03;;;;;;;8.48;100.00;101874.97;5029562;28;20131;-69
2022/11/26 05:51:39;;;;;;;4.72;2.88;;;;;;;8.48;100.00;101887.63;5029600;28;20315;-68
2022/11/26 05:54:06;;;;;;;6.47;3.17;;;;;;;8.45;100.00;101883.66;5024605;28;20120;-69
2022/11/26 05:56:31;;;;;;;3.65;2.40;;;;;;;8.50;100.00;101886.19;5026776;28;20038;-69
2022/11/26 05:58:57;;;;;;;6.22;3.50;;;;;;;8.51;100.00;101887.00;5024731;28;20063;-69
2022/11/26 06:01:22;;;;;;;5.97;3.47;;;;;;;8.48;100.00;101893.00;5025037;28;20477;-69
2022/11/26 06:03:48;;;;;;;4.60;2.97;;;;;;;8.34;100.00;101892.28;5021035;28;20046;-69
2022/11/26 06:06:13;;;;;;;5.20;2.70;;;;;;;8.41;100.00;101898.78;5025499;28;20034;-68
2022/11/26 06:08:39;;;;;;;3.33;2.60;;;;;;;8.42;100.00;101892.31;5034351;28;20037;-69
2022/11/26 06:11:05;;;;;;;6.18;3.28;;;;;;;8.45;100.00;101896.28;5026544;28;20505;-68
2022/11/26 06:13:30;;;;;;;7.05;3.92;;;;;;;8.55;100.00;101907.53;5028081;28;20029;-69
2022/11/26 06:15:55;;;;;;;5.50;2.83;;;;;;;8.46;100.00;101903.25;5029632;28;20036;-68
2022/11/26 06:18:21;;;;;;;8.00;3.28;;;;;;;8.36;100.00;101907.00;5022744;28;20041;-68
2022/11/26 06:20:46;;;;;;;5.10;2.95;;;;;;;8.37;100.00;101908.56;5027041;28;20041;-68
2022/11/26 06:23:12;;;;;;;6.90;3.60;;;;;;;8.35;100.00;101912.63;5025791;28;20042;-69
2022/11/26 06:25:42;;;;;;;6.65;2.97;;;;;;;8.29;100.00;101911.97;5026848;28;20030;-68
2022/11/26 06:28:08;;;;;;;3.97;2.80;;;;;;;8.38;100.00;101920.88;5023943;28;20104;-69
2022/11/26 06:30:33;;;;;;;8.13;4.10;;;;;;;8.43;100.00;101914.59;5022958;28;20034;-69
2022/11/26 06:32:58;;;;;;;5.90;3.35;;;;;;;8.49;100.00;101919.53;5029258;28;20064;-69
2022/11/26 06:35:24;;;;;;;4.68;3.15;;;;;;;8.55;100.00;101923.66;5031342;28;20083;-68
2022/11/26 06:37:49;;;;;;;4.53;2.15;;;;;;;8.52;100.00;101924.25;5029431;28;20045;-69
2022/11/26 06:40:18;;;;;;;6.20;3.35;;;;;;;8.46;100.00;101922.03;5035954;28;20044;-69
2022/11/26 06:42:48;;;;;;;8.85;2.90;;;;;;;8.52;100.00;101929.63;5025666;28;20032;-69
2022/11/26 06:45:14;;;;;;;6.60;3.38;;;;;;;8.38;100.00;101936.19;5024233;28;20502;-69
2022/11/26 06:47:39;;;;;;;5.18;3.25;;;;;;;8.45;100.00;101939.22;5011354;28;20075;-69
2022/11/26 06:50:05;;;;;;;5.78;3.15;;;;;;;8.50;100.00;101949.81;5007938;28;20033;-69
2022/11/26 06:52:31;;;;;;;4.63;2.80;;;;;;;8.44;100.00;101943.78;5027876;28;20626;-69
2022/11/26 06:54:56;;;;;;;4.18;2.78;;;;;;;8.44;100.00;101948.38;5032694;28;20023;-69
2022/11/26 06:57:22;;;;;;;5.10;3.10;;;;;;;8.48;100.00;101952.03;5029176;28;20067;-68
2022/11/26 06:59:47;;;;;;;5.95;2.85;;;;;;;8.48;100.00;101952.03;5003602;28;20136;-69
2022/11/26 07:02:13;;;;;;;4.78;3.00;;;;;;;8.56;100.00;101952.06;5028289;28;20112;-69
2022/11/26 07:04:38;;;;;;;6.35;2.92;;;;;;;8.59;100.00;101951.47;5011995;28;20030;-69
2022/11/26 07:07:03;;;;;;;5.90;2.60;;;;;;;8.61;100.00;101962.69;5024381;28;20041;-69
2022/11/26 07:09:29;;;;;;;5.80;3.58;;;;;;;8.65;100.00;101963.63;5026258;28;20508;-69
2022/11/26 07:11:55;;;;;;;6.75;3.17;;;;;;;8.56;100.00;101965.50;5022958;28;20108;-68
2022/11/26 07:14:21;;;;;;;4.15;2.75;;;;;;;8.57;100.00;101969.78;5023948;28;20086;-69
2022/11/26 07:16:47;;;;;;;4.63;2.53;;;;;;;8.57;100.00;101972.47;5029058;28;20029;-69
2022/11/26 07:19:13;;;;;;;6.93;3.25;;;;;;;8.40;100.00;101971.56;5023667;28;20064;-68
2022/11/26 07:21:39;;;;;;;6.13;3.40;;;;;;;8.47;100.00;101972.72;5004133;28;20270;-68
2022/11/26 07:24:05;;;;;;;7.28;2.80;;;;;;;8.44;100.00;101967.94;5028555;28;20029;-69
2022/11/26 07:26:30;;;;;;;8.43;3.67;;;;;;;8.22;100.00;101976.00;5024445;28;20056;-68
2022/11/26 07:28:56;;;;;;;7.20;3.53;;;;;;;8.36;100.00;101982.13;5019711;28;20048;-69
2022/11/26 07:31:22;;;;;;;5.30;3.83;;;;;;;8.44;100.00;101992.09;5016473;28;20091;-69
2022/11/26 07:33:48;;;;;;;7.38;3.80;;;;;;;8.43;100.00;101987.06;5027555;28;20040;-68
2022/11/26 07:36:21;;;;;;;5.10;3.15;;;;;;;8.51;100.00;101987.13;5030740;28;20077;-69
2022/11/26 07:38:47;;;;;;;5.93;3.00;;;;;;;8.51;100.00;101992.47;5032124;28;20030;-68
2022/11/26 07:41:15;;;;;;;6.22;3.88;;;;;;;8.52;100.00;101999.41;5022462;28;20040;-68
2022/11/26 07:43:41;;;;;;;6.03;3.63;;;;;;;8.55;100.00;101996.13;5020687;28;20489;-69
2022/11/26 07:46:10;;;;;;;7.07;3.60;;;;;;;8.56;100.00;102003.06;5021191;28;20029;-69
2022/11/26 07:48:38;;;;;;;7.38;4.03;;;;;;;8.56;100.00;102013.81;5022612;28;20025;-69
2022/11/26 07:51:05;;;;;;;5.55;3.67;;;;;;;8.62;100.00;102009.09;5029861;28;20033;-69
2022/11/26 07:53:33;;;;;;;10.68;4.05;;;;;;;8.61;100.00;102019.06;5014845;28;20029;-69
2022/11/26 07:55:58;;;;;;;6.45;3.80;;;;;;;8.42;100.00;102007.72;5027772;28;20063;-68
2022/11/26 07:58:25;;;;;;;10.82;4.05;;;;;;;8.38;100.00;102016.72;5032287;28;20399;-69
2022/11/26 08:00:51;;;;;;;5.10;3.42;;;;;;;8.48;100.00;102017.25;5034225;28;20052;-69
2022/11/26 08:03:17;;;;;;;6.90;3.72;;;;;;;8.44;100.00;102012.81;5033502;28;20176;-69
2022/11/26 08:05:44;;;;;;;11.40;3.97;;;;;;;8.52;100.00;102012.03;5011915;28;20096;-68
2022/11/26 08:08:10;;;;;;;5.68;3.03;;;;;;;8.51;100.00;102022.00;5022109;28;20041;-69
2022/11/26 08:10:36;;;;;;;6.30;3.75;;;;;;;8.57;100.00;102023.47;5033658;28;20040;-69
2022/11/26 08:13:02;;;;;;;6.72;3.45;;;;;;;8.65;100.00;102027.31;5032963;28;20486;-69
2022/11/26 08:15:28;;;;;;;10.48;5.03;;;;;;;8.71;100.00;102028.75;5023890;28;20107;-69
2022/11/26 08:17:54;;;;;;;5.40;3.28;;;;;;;8.75;100.00;102030.50;5028376;28;20473;-69
2022/11/26 08:20:20;;;;;;;5.63;3.47;;;;;;;8.83;100.00;102037.03;5018999;28;20087;-68
2022/11/26 08:22:45;;;;;;;6.28;3.92;;;;;;;8.83;100.00;102035.13;5026034;28;20502;-68
2022/11/26 08:25:11;;;;;;;7.53;4.05;;;;;;;8.91;100.00;102039.75;5033714;28;20107;-69
2022/11/26 08:27:36;;;;;;;9.43;4.25;;;;;;;8.98;100.00;102044.69;5033972;28;20033;-67
2022/11/26 08:30:03;;;;;;;8.70;4.45;;;;;;;9.00;100.00;102040.59;5022420;28;20440;-69
2022/11/26 08:32:29;;;;;;;8.15;4.18;;;;;;;8.78;100.00;102037.16;5034136;28;20117;-69
2022/11/26 08:34:54;;;;;;;10.30;4.85;;;;;;;8.76;100.00;102029.41;5042569;28;20457;-69
2022/11/26 08:37:19;;;;;;;8.93;4.45;;;;;;;8.79;100.00;102034.16;5040888;28;20128;-69
2022/11/26 08:39:45;;;;;;;10.90;4.80;;;;;;;8.81;100.00;102031.97;5041252;28;20049;-69
2022/11/26 08:42:10;;;;;;;15.73;5.65;;;;;;;8.79;100.00;102041.41;5031896;28;20124;-69
2022/11/26 08:44:36;;;;;;;6.85;3.97;;;;;;;8.83;100.00;102050.44;5027336;28;20029;-68
2022/11/26 08:47:01;;;;;;;11.88;5.78;;;;;;;8.95;100.00;102048.78;5033173;28;20416;-69
2022/11/26 08:49:27;;;;;;;10.25;5.22;;;;;;;8.78;100.00;102051.38;5026480;28;20041;-69
2022/11/26 08:51:55;;;;;;;8.88;4.80;;;;;;;8.81;100.00;102055.34;5017757;28;20030;-69
2022/11/26 08:54:21;;;;;;;9.90;4.68;;;;;;;8.87;100.00;102051.41;5016941;28;20018;-69
2022/11/26 08:56:47;;;;;;;6.28;3.33;;;;;;;8.87;100.00;102056.78;5027469;28;20041;-69
2022/11/26 08:59:12;;;;;;;10.48;4.38;;;;;;;8.70;100.00;102057.50;5030411;28;20047;-69
2022/11/26 09:01:38;;;;;;;10.23;4.85;;;;;;;8.70;100.00;102057.50;5030547;28;20125;-69
2022/11/26 09:04:03;;;;;;;9.23;4.10;;;;;;;8.82;100.00;102063.09;5007665;28;20038;-69
2022/11/26 09:06:31;;;;;;;10.73;4.20;;;;;;;8.88;100.00;102059.16;5029744;28;20029;-68
2022/11/26 09:09:16;;;;;;;12.23;4.80;;;;;;;8.91;100.00;102069.31;5030043;28;20127;-69
2022/11/26 09:11:56;;;;;;;8.77;3.80;;;;;;;9.04;100.00;102056.88;5024838;28;20497;-68
2022/11/26 09:14:26;;;;;;;9.68;5.00;;;;;;;9.05;100.00;102064.66;5020343;28;20033;-69
2022/11/26 09:16:53;;;;;;;8.90;4.32;;;;;;;8.99;100.00;102055.13;5026261;28;20033;-69
2022/11/26 09:19:19;;;;;;;8.88;4.75;;;;;;;9.05;100.00;102061.97;5031340;28;20026;-70
2022/11/26 09:21:44;;;;;;;11.18;5.38;;;;;;;9.05;100.00;102067.34;5030878;28;20064;-69
2022/11/26 09:24:11;;;;;;;8.88;5.28;;;;;;;8.98;100.00;102056.22;5026359;28;20056;-69
2022/11/26 09:26:37;;;;;;;8.98;4.65;;;;;;;9.19;100.00;102055.69;5022652;28;20078;-69
2022/11/26 09:29:03;;;;;;;11.35;5.57;;;;;;;9.30;100.00;102057.78;5031271;28;20036;-69
2022/11/26 09:31:29;;;;;;;11.93;5.88;;;;;;;9.14;100.00;102061.22;5029755;28;20033;-69
2022/11/26 09:33:59;;;;;;;16.67;6.03;;;;;;;9.18;100.00;102060.25;5024175;28;20556;-69
2022/11/26 09:36:24;;;;;;;8.63;4.93;;;;;;;9.19;100.00;102069.91;5023970;28;20041;-69
2022/11/26 09:38:55;;;;;;;10.32;5.45;;;;;;;9.27;100.00;102071.06;5033779;28;20042;-69
2022/11/26 09:41:42;;;;;;;10.40;5.00;;;;;;;9.37;100.00;102066.19;5028008;28;20112;-69
2022/11/26 09:44:38;;;;;;;10.18;4.70;;;;;;;9.23;100.00;102075.47;5030731;28;20275;-69
2022/11/26 09:47:15;;;;;;;11.52;5.32;;;;;;;9.21;100.00;102088.41;5034388;28;20140;-69
2022/11/26 09:50:11;;;;;;;7.95;4.68;;;;;;;9.17;100.00;102090.94;5038114;28;20028;-69
2022/11/26 09:52:45;;;;;;;9.25;4.47;;;;;;;9.22;100.00;102087.31;5019898;28;20056;-69
2022/11/26 09:55:17;;;;;;;11.55;5.45;;;;;;;8.95;100.00;102099.03;5032372;28;20062;-69
2022/11/26 09:57:48;;;;;;;;;;;;;;;8.89;100.00;102094.88;5027080;28;20092;-69
2022/11/26 10:00:33;;;;;;;8.30;5.00;;;;;;;9.02;100.00;102102.88;5017931;28;19972;-69
2022/11/26 10:02:59;;;;;;;12.57;6.18;;;;;;;8.90;100.00;102105.31;5019163;28;20033;-69
2022/11/26 10:05:39;;;;;;;10.85;5.75;;;;;;;8.98;100.00;102101.13;5017054;28;20071;-69
2022/11/26 10:08:39;;;;;;;10.70;5.50;;;;;;;9.08;100.00;102101.63;5036156;28;20052;-69
2022/11/26 10:11:23;;;;;;;11.40;5.57;;;;;;;9.23;100.00;102096.97;5033663;28;20128;-69
2022/11/26 10:13:55;;;;;;;10.07;5.22;;;;;;;9.31;100.00;102098.91;5037136;28;20034;-69
2022/11/26 10:16:42;;;;;;;13.43;5.85;;;;;;;9.32;100.00;102106.66;5000176;28;20187;-68
2022/11/26 10:19:30;;;;;;;9.30;5.63;;;;;;;9.17;100.00;102103.56;5027751;28;20379;-69
2022/11/26 10:22:02;;;;;;;9.35;5.15;;;;;;;9.23;100.00;102105.84;5028651;28;20299;-69
2022/11/26 10:24:34;;;;;;;11.27;4.70;;;;;;;9.35;100.00;102102.56;5027766;28;20127;-69
2022/11/26 10:27:08;;;;;;;13.57;5.18;;;;;;;9.33;100.00;102104.75;5031509;28;20107;-69
2022/11/26 10:29:38;;;;;;;11.23;5.80;;;;;;;9.29;100.00;102117.25;5019167;28;20037;-69
2022/11/26 10:32:37;;;;;;;15.43;6.30;;;;;;;9.29;100.00;102122.59;5022125;28;20124;-69
2022/11/26 10:35:04;;;;;;;11.25;5.20;;;;;;;9.35;100.00;102124.06;5023342;28;20359;-69
2022/11/26 10:37:29;;;;;;;15.48;5.93;;;;;;;9.30;100.00;102116.13;5022960;28;20033;-68
2022/11/26 10:39:56;;;;;;;9.75;5.28;;;;;;;9.43;100.00;102123.28;5029254;28;20048;-69
2022/11/26 10:42:22;;;;;;;13.65;5.70;;;;;;;9.53;100.00;102109.56;5025593;28;20026;-69
2022/11/26 10:44:49;;;;;;;9.20;4.75;;;;;;;9.54;100.00;102124.63;5026821;28;20056;-69
2022/11/26 10:47:31;;;;;;;12.80;5.40;;;;;;;9.68;100.00;102119.91;5033110;28;20489;-69
2022/11/26 10:50:00;;;;;;;18.00;6.25;;;;;;;9.58;100.00;102112.13;5024480;28;20029;-69
2022/11/26 10:52:27;;;;;;;15.43;6.45;;;;;;;9.56;100.00;102117.81;5025480;28;20436;-69
2022/11/26 10:55:24;;;;;;;12.82;5.88;;;;;;;9.46;100.00;102122.69;5023492;28;20167;-69
2022/11/26 10:57:57;;;;;;;10.18;4.60;;;;;;;9.50;100.00;102126.34;5024184;28;20044;-68
2022/11/26 11:00:30;;;;;;;13.63;5.53;;;;;;;9.53;100.00;102128.38;5014554;28;20113;-69
2022/11/26 11:02:57;;;;;;;12.93;5.15;;;;;;;9.68;100.00;102127.97;5023916;28;20038;-69
2022/11/26 11:05:23;;;;;;;12.15;4.63;;;;;;;9.69;100.00;102130.38;5031295;28;20044;-69
2022/11/26 11:07:52;;;;;;;11.57;5.22;;;;;;;9.85;100.00;102138.78;5029677;28;20449;-69
2022/11/26 11:10:23;;;;;;;13.00;6.03;;;;;;;9.92;100.00;102141.81;5029256;28;20065;-69
2022/11/26 11:12:49;;;;;;;9.38;4.78;;;;;;;9.90;100.00;102144.03;5028507;28;20056;-69
2022/11/26 11:15:27;;;;;;;14.20;5.03;;;;;;;9.67;100.00;102142.53;5028898;28;20033;-69
2022/11/26 11:17:59;;;;;;;9.43;4.53;;;;;;;9.66;100.00;102135.53;5018828;28;20510;-69
2022/11/26 11:20:31;;;;;;;9.30;4.68;;;;;;;9.84;100.00;102138.00;5023130;28;20042;-69
2022/11/26 11:23:08;;;;;;;9.43;5.40;;;;;;;9.87;100.00;102137.34;5023786;28;20068;-69
2022/11/26 11:25:37;;;;;;;12.77;5.70;;;;;;;9.83;100.00;102141.78;5022558;28;20017;-69
2022/11/26 11:28:11;;;;;;;9.70;4.15;;;;;;;9.83;100.00;102138.31;5025982;28;20496;-69
2022/11/26 11:30:38;;;;;;;10.18;4.68;;;;;;;9.82;100.00;102142.09;5015483;28;20044;-69
2022/11/26 11:33:24;;;;;;;11.25;5.47;;;;;;;9.86;100.00;102140.38;5017155;28;20038;-69